sensor_id;sensor_type;location;lat;lon;timestamp;pressure;altitude;pressure_sealevel;temperature;humidity
65897;BME280;52677;50.898;10.854;2023-02-10T00:01:22;100255.06;;;-6.12;100.00
65897;BME280;52677;50.898;10.854;2023-02-10T00:03:23;100260.00;;;-6.09;100.00
65897;BME280;52677;50.898;10.854;2023-02-10T00:05:23;100263.88;;;-6.05;100.00
65897;BME280;52677;50.898;10.854;2023-02-10T00:07:23;100256.84;;;-6.06;100.00
65897;BME280;52677;50.898;10.854;2023-02-10T00:09:24;100269.06;;;-6.04;100.00
65897;BME280;52677;50.898;10.854;2023-02-10T00:11:25;100263.06;;;-6.06;100.00
65897;BME280;52677;50.898;10.854;2023-02-10T00:13:45;100256.63;;;-6.05;100.00
65897;BME280;52677;50.898;10.854;2023-02-10T00:15:45;100266.16;;;-6.02;100.00
65897;BME280;52677;50.898;10.854;2023-02-10T00:17:45;100264.34;;;-6.08;100.00
65897;BME280;52677;50.898;10.854;2023-02-10T00:19:46;100264.00;;;-6.12;100.00
65897;BME280;52677;50.898;10.854;2023-02-10T00:21:46;100266.16;;;-6.20;100.00
65897;BME280;52677;50.898;10.854;2023-02-10T00:23:46;100271.75;;;-6.22;100.00
65897;BME280;52677;50.898;10.854;2023-02-10T00:25:47;100273.19;;;-6.19;100.00
65897;BME280;52677;50.898;10.854;2023-02-10T00:27:47;100273.78;;;-6.17;100.00
65897;BME280;52677;50.898;10.854;2023-02-10T00:29:47;100270.88;;;-6.16;100.00
65897;BME280;52677;50.898;10.854;2023-02-10T00:31:49;100272.50;;;-6.15;100.00
65897;BME280;52677;50.898;10.854;2023-02-10T00:33:49;100272.50;;;-6.15;100.00
65897;BME280;52677;50.898;10.854;2023-02-10T00:35:50;100277.91;;;-6.15;100.00
65897;BME280;52677;50.898;10.854;2023-02-10T00:37:50;100272.56;;;-6.22;100.00
65897;BME280;52677;50.898;10.854;2023-02-10T00:39:50;100277.53;;;-6.18;100.00
65897;BME280;52677;50.898;10.854;2023-02-10T00:41:51;100278.19;;;-6.23;100.00
65897;BME280;52677;50.898;10.854;2023-02-10T00:43:52;100279.69;;;-6.27;100.00
65897;BME280;52677;50.898;10.854;2023-02-10T00:45:52;100275.78;;;-6.31;100.00
65897;BME280;52677;50.898;10.854;2023-02-10T00:47:52;100279.31;;;-6.31;100.00
65897;BME280;52677;50.898;10.854;2023-02-10T00:49:53;100281.06;;;-6.36;100.00
65897;BME280;52677;50.898;10.854;2023-02-10T00:51:53;100277.97;;;-6.40;100.00
65897;BME280;52677;50.898;10.854;2023-02-10T00:53:53;100287.38;;;-6.31;100.00
65897;BME280;52677;50.898;10.854;2023-02-10T00:55:54;100282.06;;;-6.37;100.00
65897;BME280;52677;50.898;10.854;2023-02-10T00:57:54;100278.56;;;-6.38;100.00
65897;BME280;52677;50.898;10.854;2023-02-10T00:59:55;100281.66;;;-6.34;100.00
65897;BME280;52677;50.898;10.854;2023-02-10T01:01:55;100294.88;;;-6.33;100.00
65897;BME280;52677;50.898;10.854;2023-02-10T01:03:55;100294.88;;;-6.33;100.00
65897;BME280;52677;50.898;10.854;2023-02-10T01:05:56;100299.97;;;-6.25;100.00
65897;BME280;52677;50.898;10.854;2023-02-10T01:07:57;100297.13;;;-6.30;100.00
65897;BME280;52677;50.898;10.854;2023-02-10T01:09:57;100302.16;;;-6.33;100.00
65897;BME280;52677;50.898;10.854;2023-02-10T01:11:58;100294.81;;;-6.26;100.00
65897;BME280;52677;50.898;10.854;2023-02-10T01:13:58;100294.66;;;-6.31;100.00
65897;BME280;52677;50.898;10.854;2023-02-10T01:15:58;100300.22;;;-6.26;100.00
65897;BME280;52677;50.898;10.854;2023-02-10T01:17:59;100310.97;;;-6.26;100.00
65897;BME280;52677;50.898;10.854;2023-02-10T01:19:59;100309.94;;;-6.25;100.00
65897;BME280;52677;50.898;10.854;2023-02-10T01:22:00;100315.69;;;-6.22;100.00
65897;BME280;52677;50.898;10.854;2023-02-10T01:24:00;100312.69;;;-6.13;100.00
65897;BME280;52677;50.898;10.854;2023-02-10T01:26:01;100313.44;;;-6.06;100.00
65897;BME280;52677;50.898;10.854;2023-02-10T01:28:02;100317.72;;;-5.99;100.00
65897;BME280;52677;50.898;10.854;2023-02-10T01:30:03;100318.47;;;-5.91;100.00
65897;BME280;52677;50.898;10.854;2023-02-10T01:32:04;100314.03;;;-5.86;100.00
65897;BME280;52677;50.898;10.854;2023-02-10T01:34:04;100317.47;;;-5.79;100.00
65897;BME280;52677;50.898;10.854;2023-02-10T01:36:06;100315.72;;;-5.73;100.00
65897;BME280;52677;50.898;10.854;2023-02-10T01:38:07;100315.41;;;-5.65;100.00
65897;BME280;52677;50.898;10.854;2023-02-10T01:40:08;100313.31;;;-5.63;100.00
65897;BME280;52677;50.898;10.854;2023-02-10T01:42:12;100311.00;;;-5.59;100.00
65897;BME280;52677;50.898;10.854;2023-02-10T01:46:20;100317.13;;;-5.52;100.00
65897;BME280;52677;50.898;10.854;2023-02-10T01:48:20;100321.06;;;-5.55;100.00
65897;BME280;52677;50.898;10.854;2023-02-10T01:50:26;100322.50;;;-5.52;100.00
65897;BME280;52677;50.898;10.854;2023-02-10T01:52:27;100323.09;;;-5.50;100.00
65897;BME280;52677;50.898;10.854;2023-02-10T01:54:33;100321.22;;;-5.50;100.00
65897;BME280;52677;50.898;10.854;2023-02-10T01:56:34;100308.09;;;-5.46;100.00
65897;BME280;52677;50.898;10.854;2023-02-10T01:58:34;100325.72;;;-5.44;100.00
65897;BME280;52677;50.898;10.854;2023-02-10T02:00:35;100320.44;;;-5.39;100.00
65897;BME280;52677;50.898;10.854;2023-02-10T02:02:35;100313.56;;;-5.34;100.00
65897;BME280;52677;50.898;10.854;2023-02-10T02:04:41;100321.56;;;-5.28;100.00
65897;BME280;52677;50.898;10.854;2023-02-10T02:06:42;100310.75;;;-5.28;100.00
65897;BME280;52677;50.898;10.854;2023-02-10T02:08:43;100314.41;;;-5.22;100.00
65897;BME280;52677;50.898;10.854;2023-02-10T02:11:10;100316.28;;;-5.23;100.00
65897;BME280;52677;50.898;10.854;2023-02-10T02:13:28;100316.06;;;-5.21;100.00
65897;BME280;52677;50.898;10.854;2023-02-10T02:16:13;100329.56;;;-5.21;100.00
65897;BME280;52677;50.898;10.854;2023-02-10T02:21:22;100313.25;;;-5.15;100.00
65897;BME280;52677;50.898;10.854;2023-02-10T02:23:14;100322.53;;;-5.11;100.00
65897;BME280;52677;50.898;10.854;2023-02-10T02:32:36;100327.03;;;-5.04;100.00
65897;BME280;52677;50.898;10.854;2023-02-10T02:36:50;100327.72;;;-4.97;100.00
65897;BME280;52677;50.898;10.854;2023-02-10T02:38:59;100323.38;;;-4.98;100.00
65897;BME280;52677;50.898;10.854;2023-02-10T02:41:00;100320.00;;;-4.94;100.00
65897;BME280;52677;50.898;10.854;2023-02-10T02:43:00;100322.47;;;-4.92;100.00
65897;BME280;52677;50.898;10.854;2023-02-10T02:47:22;100320.13;;;-4.89;100.00
65897;BME280;52677;50.898;10.854;2023-02-10T02:49:40;100328.84;;;-4.87;100.00
65897;BME280;52677;50.898;10.854;2023-02-10T02:54:14;100316.50;;;-4.83;100.00
65897;BME280;52677;50.898;10.854;2023-02-10T02:56:31;100308.88;;;-4.86;100.00
65897;BME280;52677;50.898;10.854;2023-02-10T03:00:45;100313.56;;;-4.81;100.00
65897;BME280;52677;50.898;10.854;2023-02-10T03:02:46;100308.16;;;-4.81;100.00
65897;BME280;52677;50.898;10.854;2023-02-10T03:04:47;100308.97;;;-4.81;100.00
65897;BME280;52677;50.898;10.854;2023-02-10T03:06:48;100298.41;;;-4.82;100.00
65897;BME280;52677;50.898;10.854;2023-02-10T03:08:48;100303.56;;;-4.81;100.00
65897;BME280;52677;50.898;10.854;2023-02-10T03:10:49;100310.41;;;-4.78;100.00
65897;BME280;52677;50.898;10.854;2023-02-10T03:12:49;100312.06;;;-4.77;100.00
65897;BME280;52677;50.898;10.854;2023-02-10T03:14:50;100324.25;;;-4.74;100.00
65897;BME280;52677;50.898;10.854;2023-02-10T03:16:51;100316.16;;;-4.74;100.00
65897;BME280;52677;50.898;10.854;2023-02-10T03:18:51;100311.00;;;-4.76;100.00
65897;BME280;52677;50.898;10.854;2023-02-10T03:20:51;100315.72;;;-4.71;100.00
65897;BME280;52677;50.898;10.854;2023-02-10T03:22:52;100317.13;;;-4.69;100.00
65897;BME280;52677;50.898;10.854;2023-02-10T03:24:52;100320.63;;;-4.68;100.00
65897;BME280;52677;50.898;10.854;2023-02-10T03:26:52;100313.59;;;-4.69;100.00
65897;BME280;52677;50.898;10.854;2023-02-10T03:28:53;100321.22;;;-4.66;100.00
65897;BME280;52677;50.898;10.854;2023-02-10T03:30:54;100315.81;;;-4.66;100.00
65897;BME280;52677;50.898;10.854;2023-02-10T03:32:55;100315.56;;;-4.65;100.00
65897;BME280;52677;50.898;10.854;2023-02-10T03:34:56;100322.63;;;-4.64;100.00
65897;BME280;52677;50.898;10.854;2023-02-10T03:36:56;100317.81;;;-4.62;100.00
65897;BME280;52677;50.898;10.854;2023-02-10T03:38:57;100324.63;;;-4.59;100.00
65897;BME280;52677;50.898;10.854;2023-02-10T03:40:57;100323.00;;;-4.60;100.00
65897;BME280;52677;50.898;10.854;2023-02-10T03:42:58;100327.09;;;-4.58;100.00
65897;BME280;52677;50.898;10.854;2023-02-10T03:44:58;100322.75;;;-4.59;100.00
65897;BME280;52677;50.898;10.854;2023-02-10T03:46:58;100334.75;;;-4.55;100.00
65897;BME280;52677;50.898;10.854;2023-02-10T03:48:59;100338.84;;;-4.52;100.00
65897;BME280;52677;50.898;10.854;2023-02-10T03:51:00;100338.03;;;-4.53;100.00
65897;BME280;52677;50.898;10.854;2023-02-10T03:53:01;100345.91;;;-4.51;100.00
65897;BME280;52677;50.898;10.854;2023-02-10T03:55:02;100344.59;;;-4.48;100.00
65897;BME280;52677;50.898;10.854;2023-02-10T03:57:02;100346.03;;;-4.46;100.00
65897;BME280;52677;50.898;10.854;2023-02-10T03:59:04;100358.47;;;-4.45;100.00
65897;BME280;52677;50.898;10.854;2023-02-10T04:01:09;100350.97;;;-4.43;100.00
65897;BME280;52677;50.898;10.854;2023-02-10T04:03:10;100350.28;;;-4.38;100.00
65897;BME280;52677;50.898;10.854;2023-02-10T04:05:10;100350.84;;;-4.36;100.00
65897;BME280;52677;50.898;10.854;2023-02-10T04:07:11;100356.59;;;-4.33;100.00
65897;BME280;52677;50.898;10.854;2023-02-10T04:09:11;100356.34;;;-4.31;100.00
65897;BME280;52677;50.898;10.854;2023-02-10T04:11:11;100364.47;;;-4.31;100.00
65897;BME280;52677;50.898;10.854;2023-02-10T04:13:13;100353.44;;;-4.30;100.00
65897;BME280;52677;50.898;10.854;2023-02-10T04:15:13;100362.94;;;-4.27;100.00
65897;BME280;52677;50.898;10.854;2023-02-10T04:17:13;100356.13;;;-4.30;100.00
65897;BME280;52677;50.898;10.854;2023-02-10T04:19:14;100362.13;;;-4.28;100.00
65897;BME280;52677;50.898;10.854;2023-02-10T04:21:14;100365.88;;;-4.29;100.00
65897;BME280;52677;50.898;10.854;2023-02-10T04:23:14;100365.06;;;-4.29;100.00
65897;BME280;52677;50.898;10.854;2023-02-10T04:25:15;100367.78;;;-4.29;100.00
65897;BME280;52677;50.898;10.854;2023-02-10T04:27:15;100367.53;;;-4.28;100.00
65897;BME280;52677;50.898;10.854;2023-02-10T04:29:16;100373.53;;;-4.26;100.00
65897;BME280;52677;50.898;10.854;2023-02-10T04:31:16;100364.94;;;-4.22;100.00
65897;BME280;52677;50.898;10.854;2023-02-10T04:33:17;100371.03;;;-4.15;100.00
65897;BME280;52677;50.898;10.854;2023-02-10T04:35:17;100367.66;;;-4.11;100.00
65897;BME280;52677;50.898;10.854;2023-02-10T04:37:18;100371.75;;;-4.08;100.00
65897;BME280;52677;50.898;10.854;2023-02-10T04:39:18;100379.03;;;-4.09;100.00
65897;BME280;52677;50.898;10.854;2023-02-10T04:41:19;100380.94;;;-4.09;100.00
65897;BME280;52677;50.898;10.854;2023-02-10T04:43:19;100380.09;;;-4.10;100.00
65897;BME280;52677;50.898;10.854;2023-02-10T04:45:19;100373.50;;;-4.14;100.00
65897;BME280;52677;50.898;10.854;2023-02-10T04:47:20;100379.97;;;-4.15;100.00
65897;BME280;52677;50.898;10.854;2023-02-10T04:49:20;100367.28;;;-4.14;100.00
65897;BME280;52677;50.898;10.854;2023-02-10T04:51:20;100368.94;;;-4.13;100.00
65897;BME280;52677;50.898;10.854;2023-02-10T04:53:20;100385.38;;;-4.15;100.00
65897;BME280;52677;50.898;10.854;2023-02-10T04:55:21;100383.28;;;-4.13;100.00
65897;BME280;52677;50.898;10.854;2023-02-10T04:57:21;100381.41;;;-4.12;100.00
65897;BME280;52677;50.898;10.854;2023-02-10T04:59:22;100378.34;;;-4.16;100.00
65897;BME280;52677;50.898;10.854;2023-02-10T05:01:22;100394.56;;;-4.16;100.00
65897;BME280;52677;50.898;10.854;2023-02-10T05:03:23;100386.44;;;-4.16;100.00
65897;BME280;52677;50.898;10.854;2023-02-10T05:08:21;100397.00;;;-4.14;100.00
65897;BME280;52677;50.898;10.854;2023-02-10T05:10:23;100394.09;;;-4.13;100.00
65897;BME280;52677;50.898;10.854;2023-02-10T05:12:23;100394.44;;;-4.09;100.00
65897;BME280;52677;50.898;10.854;2023-02-10T05:14:24;100402.31;;;-4.08;100.00
65897;BME280;52677;50.898;10.854;2023-02-10T05:16:24;100402.19;;;-4.01;100.00
65897;BME280;52677;50.898;10.854;2023-02-10T05:18:24;100388.69;;;-4.01;100.00
65897;BME280;52677;50.898;10.854;2023-02-10T05:20:25;100397.75;;;-3.96;100.00
65897;BME280;52677;50.898;10.854;2023-02-10T05:22:25;100397.75;;;-3.96;100.00
65897;BME280;52677;50.898;10.854;2023-02-10T05:24:29;100402.44;;;-3.91;100.00
65897;BME280;52677;50.898;10.854;2023-02-10T05:26:29;100399.03;;;-3.86;100.00
65897;BME280;52677;50.898;10.854;2023-02-10T05:28:30;100404.06;;;-3.78;100.00
65897;BME280;52677;50.898;10.854;2023-02-10T05:30:30;100403.34;;;-3.74;100.00
65897;BME280;52677;50.898;10.854;2023-02-10T05:32:31;100400.28;;;-3.65;100.00
65897;BME280;52677;50.898;10.854;2023-02-10T05:34:31;100403.31;;;-3.38;100.00
65897;BME280;52677;50.898;10.854;2023-02-10T05:36:31;100401.25;;;-3.31;100.00
65897;BME280;52677;50.898;10.854;2023-02-10T05:38:32;100404.25;;;-3.16;100.00
65897;BME280;52677;50.898;10.854;2023-02-10T05:40:32;100397.31;;;-3.12;100.00
65897;BME280;52677;50.898;10.854;2023-02-10T05:42:33;100395.69;;;-3.13;100.00
65897;BME280;52677;50.898;10.854;2023-02-10T05:44:33;100397.78;;;-3.15;100.00
65897;BME280;52677;50.898;10.854;2023-02-10T05:46:33;100387.34;;;-3.23;100.00
65897;BME280;52677;50.898;10.854;2023-02-10T05:48:33;100395.47;;;-3.23;100.00
65897;BME280;52677;50.898;10.854;2023-02-10T05:50:34;100393.34;;;-3.21;100.00
65897;BME280;52677;50.898;10.854;2023-02-10T05:52:34;100409.00;;;-3.23;100.00
65897;BME280;52677;50.898;10.854;2023-02-10T05:54:35;100406.66;;;-3.31;100.00
65897;BME280;52677;50.898;10.854;2023-02-10T05:56:35;100395.75;;;-3.36;100.00
65897;BME280;52677;50.898;10.854;2023-02-10T05:58:35;100402.69;;;-3.41;100.00
65897;BME280;52677;50.898;10.854;2023-02-10T06:00:36;100406.47;;;-3.42;100.00
65897;BME280;52677;50.898;10.854;2023-02-10T06:02:36;100414.81;;;-3.43;100.00
65897;BME280;52677;50.898;10.854;2023-02-10T06:04:36;100419.91;;;-3.47;100.00
65897;BME280;52677;50.898;10.854;2023-02-10T06:06:37;100412.75;;;-3.53;100.00
65897;BME280;52677;50.898;10.854;2023-02-10T06:08:37;100426.25;;;-3.53;100.00
65897;BME280;52677;50.898;10.854;2023-02-10T06:10:37;100421.56;;;-3.57;100.00
65897;BME280;52677;50.898;10.854;2023-02-10T06:12:38;100429.59;;;-3.62;100.00
65897;BME280;52677;50.898;10.854;2023-02-10T06:14:38;100425.44;;;-3.65;100.00
65897;BME280;52677;50.898;10.854;2023-02-10T06:16:39;100436.75;;;-3.68;100.00
65897;BME280;52677;50.898;10.854;2023-02-10T06:18:39;100439.13;;;-3.72;100.00
65897;BME280;52677;50.898;10.854;2023-02-10T06:20:39;100444.75;;;-3.73;100.00
65897;BME280;52677;50.898;10.854;2023-02-10T06:22:39;100441.22;;;-3.74;100.00
65897;BME280;52677;50.898;10.854;2023-02-10T06:24:40;100437.69;;;-3.74;100.00
65897;BME280;52677;50.898;10.854;2023-02-10T06:26:41;100443.09;;;-3.74;100.00
65897;BME280;52677;50.898;10.854;2023-02-10T06:28:42;100437.13;;;-3.76;100.00
65897;BME280;52677;50.898;10.854;2023-02-10T06:30:42;100443.34;;;-3.76;100.00
65897;BME280;52677;50.898;10.854;2023-02-10T06:32:42;100434.16;;;-3.75;100.00
65897;BME280;52677;50.898;10.854;2023-02-10T06:34:43;100443.72;;;-3.72;100.00
65897;BME280;52677;50.898;10.854;2023-02-10T06:36:45;100432.88;;;-3.72;100.00
65897;BME280;52677;50.898;10.854;2023-02-10T06:38:45;100435.13;;;-3.69;100.00
65897;BME280;52677;50.898;10.854;2023-02-10T06:40:47;100446.50;;;-3.67;100.00
65897;BME280;52677;50.898;10.854;2023-02-10T06:42:48;100447.09;;;-3.65;100.00
65897;BME280;52677;50.898;10.854;2023-02-10T06:44:48;100449.78;;;-3.65;100.00
65897;BME280;52677;50.898;10.854;2023-02-10T06:46:48;100437.09;;;-3.64;100.00
65897;BME280;52677;50.898;10.854;2023-02-10T06:48:49;100439.09;;;-3.60;100.00
65897;BME280;52677;50.898;10.854;2023-02-10T06:50:49;100439.91;;;-3.59;100.00
65897;BME280;52677;50.898;10.854;2023-02-10T06:52:50;100439.09;;;-3.60;100.00
65897;BME280;52677;50.898;10.854;2023-02-10T06:54:50;100433.44;;;-3.58;100.00
65897;BME280;52677;50.898;10.854;2023-02-10T06:56:50;100432.88;;;-3.60;100.00
65897;BME280;52677;50.898;10.854;2023-02-10T06:58:51;100435.91;;;-3.57;100.00
65897;BME280;52677;50.898;10.854;2023-02-10T07:00:51;100439.69;;;-3.58;100.00
65897;BME280;52677;50.898;10.854;2023-02-10T07:02:52;100440.50;;;-3.57;100.00
65897;BME280;52677;50.898;10.854;2023-02-10T07:04:52;100432.88;;;-3.60;100.00
65897;BME280;52677;50.898;10.854;2023-02-10T07:06:52;100434.50;;;-3.59;100.00
65897;BME280;52677;50.898;10.854;2023-02-10T07:08:53;100437.44;;;-3.61;100.00
65897;BME280;52677;50.898;10.854;2023-02-10T07:10:53;100440.66;;;-3.64;100.00
65897;BME280;52677;50.898;10.854;2023-02-10T07:12:53;100435.69;;;-3.67;100.00
65897;BME280;52677;50.898;10.854;2023-02-10T07:14:54;100438.63;;;-3.69;100.00
65897;BME280;52677;50.898;10.854;2023-02-10T07:16:54;100438.88;;;-3.70;100.00
65897;BME280;52677;50.898;10.854;2023-02-10T07:18:54;100445.69;;;-3.68;100.00
65897;BME280;52677;50.898;10.854;2023-02-10T07:20:55;100442.97;;;-3.68;100.00
65897;BME280;52677;50.898;10.854;2023-02-10T07:22:55;100443.22;;;-3.69;100.00
65897;BME280;52677;50.898;10.854;2023-02-10T07:24:55;100445.69;;;-3.68;100.00
65897;BME280;52677;50.898;10.854;2023-02-10T07:26:57;100446.25;;;-3.65;100.00
65897;BME280;52677;50.898;10.854;2023-02-10T07:28:57;100444.63;;;-3.67;100.00
65897;BME280;52677;50.898;10.854;2023-02-10T07:30:57;100442.16;;;-3.68;100.00
65897;BME280;52677;50.898;10.854;2023-02-10T07:32:58;100455.94;;;-3.70;100.00
65897;BME280;52677;50.898;10.854;2023-02-10T07:34:59;100463.22;;;-3.70;100.00
65897;BME280;52677;50.898;10.854;2023-02-10T07:37:00;100456.03;;;-3.76;100.00
65897;BME280;52677;50.898;10.854;2023-02-10T07:39:00;100471.59;;;-3.72;100.00
65897;BME280;52677;50.898;10.854;2023-02-10T07:41:00;100482.16;;;-3.70;100.00
65897;BME280;52677;50.898;10.854;2023-02-10T07:43:01;100477.56;;;-3.70;100.00
65897;BME280;52677;50.898;10.854;2023-02-10T07:45:01;100484.28;;;-3.72;100.00
65897;BME280;52677;50.898;10.854;2023-02-10T07:47:02;100480.03;;;-3.68;100.00
65897;BME280;52677;50.898;10.854;2023-02-10T07:49:02;100480.03;;;-3.68;100.00
65897;BME280;52677;50.898;10.854;2023-02-10T07:51:03;100484.63;;;-3.69;100.00
65897;BME280;52677;50.898;10.854;2023-02-10T07:53:04;100484.63;;;-3.69;100.00
65897;BME280;52677;50.898;10.854;2023-02-10T07:55:05;100485.56;;;-3.63;100.00
65897;BME280;52677;50.898;10.854;2023-02-10T07:57:05;100490.03;;;-3.57;100.00
65897;BME280;52677;50.898;10.854;2023-02-10T07:59:05;100483.34;;;-3.54;100.00
65897;BME280;52677;50.898;10.854;2023-02-10T08:01:10;100492.97;;;-3.47;100.00
65897;BME280;52677;50.898;10.854;2023-02-10T08:03:14;100490.50;;;-3.36;100.00
65897;BME280;52677;50.898;10.854;2023-02-10T08:05:15;100500.97;;;-3.28;100.00
65897;BME280;52677;50.898;10.854;2023-02-10T08:07:15;100495.72;;;-3.06;100.00
65897;BME280;52677;50.898;10.854;2023-02-10T08:09:16;100492.41;;;-2.97;100.00
65897;BME280;52677;50.898;10.854;2023-02-10T08:11:17;100489.91;;;-2.87;100.00
65897;BME280;52677;50.898;10.854;2023-02-10T08:13:18;100498.97;;;-2.81;100.00
65897;BME280;52677;50.898;10.854;2023-02-10T08:15:18;100491.66;;;-2.80;100.00
65897;BME280;52677;50.898;10.854;2023-02-10T08:17:20;100490.91;;;-2.76;100.00
65897;BME280;52677;50.898;10.854;2023-02-10T08:19:21;100490.44;;;-2.73;100.00
65897;BME280;52677;50.898;10.854;2023-02-10T08:21:21;100484.53;;;-2.70;100.00
65897;BME280;52677;50.898;10.854;2023-02-10T08:23:21;100490.38;;;-2.61;100.00
65897;BME280;52677;50.898;10.854;2023-02-10T08:25:22;100495.66;;;-2.55;100.00
65897;BME280;52677;50.898;10.854;2023-02-10T08:27:23;100484.69;;;-2.48;100.00
65897;BME280;52677;50.898;10.854;2023-02-10T08:29:23;100487.31;;;-2.36;100.00
65897;BME280;52677;50.898;10.854;2023-02-10T08:31:23;100487.75;;;-2.28;100.00
65897;BME280;52677;50.898;10.854;2023-02-10T08:33:24;100488.97;;;-2.18;100.00
65897;BME280;52677;50.898;10.854;2023-02-10T08:35:25;100486.69;;;-2.10;100.00
65897;BME280;52677;50.898;10.854;2023-02-10T08:37:25;100495.59;;;-1.98;100.00
65897;BME280;52677;50.898;10.854;2023-02-10T08:39:28;100499.78;;;-1.90;100.00
65897;BME280;52677;50.898;10.854;2023-02-10T08:41:28;100499.94;;;-1.80;100.00
65897;BME280;52677;50.898;10.854;2023-02-10T08:43:30;100507.50;;;-1.65;100.00
65897;BME280;52677;50.898;10.854;2023-02-10T08:45:31;100500.81;;;-1.40;100.00
65897;BME280;52677;50.898;10.854;2023-02-10T08:47:33;100496.06;;;-1.28;100.00
65897;BME280;52677;50.898;10.854;2023-02-10T08:49:33;100502.59;;;-1.07;100.00
65897;BME280;52677;50.898;10.854;2023-02-10T08:51:33;100501.66;;;-0.96;100.00
65897;BME280;52677;50.898;10.854;2023-02-10T08:53:34;100498.34;;;-0.76;100.00
65897;BME280;52677;50.898;10.854;2023-02-10T08:55:34;100505.56;;;-0.65;100.00
65897;BME280;52677;50.898;10.854;2023-02-10T08:57:35;100506.94;;;-0.63;100.00
65897;BME280;52677;50.898;10.854;2023-02-10T08:59:36;100505.34;;;-0.59;100.00
65897;BME280;52677;50.898;10.854;2023-02-10T09:01:37;100506.41;;;-0.60;100.00
65897;BME280;52677;50.898;10.854;2023-02-10T09:03:38;100505.41;;;-0.53;100.00
65897;BME280;52677;50.898;10.854;2023-02-10T09:05:39;100502.50;;;-0.47;100.00
65897;BME280;52677;50.898;10.854;2023-02-10T09:07:40;100508.28;;;-0.38;100.00
65897;BME280;52677;50.898;10.854;2023-02-10T09:09:41;100500.69;;;-0.36;100.00
65897;BME280;52677;50.898;10.854;2023-02-10T09:11:42;100505.88;;;-0.35;100.00
65897;BME280;52677;50.898;10.854;2023-02-10T09:13:43;100505.50;;;-0.43;100.00
65897;BME280;52677;50.898;10.854;2023-02-10T09:15:43;100509.31;;;-0.44;100.00
65897;BME280;52677;50.898;10.854;2023-02-10T09:17:43;100516.97;;;-0.41;100.00
65897;BME280;52677;50.898;10.854;2023-02-10T09:19:44;100513.41;;;-0.42;100.00
65897;BME280;52677;50.898;10.854;2023-02-10T09:21:44;100518.84;;;-0.42;100.00
65897;BME280;52677;50.898;10.854;2023-02-10T09:23:44;100509.66;;;-0.36;100.00
65897;BME280;52677;50.898;10.854;2023-02-10T09:25:55;100513.53;;;-0.32;100.00
65897;BME280;52677;50.898;10.854;2023-02-10T09:27:56;100515.00;;;-0.19;100.00
65897;BME280;52677;50.898;10.854;2023-02-10T09:29:57;100516.97;;;-0.14;100.00
65897;BME280;52677;50.898;10.854;2023-02-10T09:31:57;100513.44;;;-0.10;100.00
65897;BME280;52677;50.898;10.854;2023-02-10T09:33:59;100509.66;;;-0.09;100.00
65897;BME280;52677;50.898;10.854;2023-02-10T09:36:02;100514.84;;;-0.07;100.00
65897;BME280;52677;50.898;10.854;2023-02-10T09:38:03;100512.97;;;-0.07;100.00
65897;BME280;52677;50.898;10.854;2023-02-10T09:40:03;100504.59;;;0.00;100.00
65897;BME280;52677;50.898;10.854;2023-02-10T09:42:14;100523.94;;;0.04;100.00
65897;BME280;52677;50.898;10.854;2023-02-10T09:46:31;100514.63;;;-0.01;100.00
65897;BME280;52677;50.898;10.854;2023-02-10T09:53:01;100530.81;;;0.11;100.00
65897;BME280;52677;50.898;10.854;2023-02-10T09:55:16;100521.75;;;0.06;100.00
65897;BME280;52677;50.898;10.854;2023-02-10T09:57:37;100521.22;;;0.04;100.00
65897;BME280;52677;50.898;10.854;2023-02-10T09:59:41;100521.03;;;0.15;100.00
65897;BME280;52677;50.898;10.854;2023-02-10T10:01:51;100518.69;;;0.29;100.00
65897;BME280;52677;50.898;10.854;2023-02-10T10:06:29;100520.44;;;0.45;100.00
65897;BME280;52677;50.898;10.854;2023-02-10T10:08:45;100518.91;;;0.60;100.00
65897;BME280;52677;50.898;10.854;2023-02-10T10:10:48;100524.44;;;0.70;100.00
65897;BME280;52677;50.898;10.854;2023-02-10T10:12:50;100521.03;;;0.95;100.00
65897;BME280;52677;50.898;10.854;2023-02-10T10:14:50;100515.34;;;1.01;100.00
65897;BME280;52677;50.898;10.854;2023-02-10T10:17:25;100525.19;;;1.12;100.00
65897;BME280;52677;50.898;10.854;2023-02-10T10:22:03;100528.25;;;1.26;100.00
65897;BME280;52677;50.898;10.854;2023-02-10T10:24:57;100521.47;;;1.34;100.00
65897;BME280;52677;50.898;10.854;2023-02-10T10:26:59;100523.94;;;1.35;100.00
65897;BME280;52677;50.898;10.854;2023-02-10T10:31:44;100512.47;;;1.38;100.00
65897;BME280;52677;50.898;10.854;2023-02-10T10:34:02;100513.88;;;1.41;100.00
65897;BME280;52677;50.898;10.854;2023-02-10T10:36:10;100523.69;;;1.42;100.00
65897;BME280;52677;50.898;10.854;2023-02-10T10:38:19;100515.53;;;1.52;100.00
65897;BME280;52677;50.898;10.854;2023-02-10T10:40:23;100518.81;;;1.54;100.00
65897;BME280;52677;50.898;10.854;2023-02-10T10:42:48;100511.97;;;1.52;100.00
65897;BME280;52677;50.898;10.854;2023-02-10T10:44:59;100515.25;;;1.54;100.00
65897;BME280;52677;50.898;10.854;2023-02-10T10:47:18;100507.06;;;1.54;100.00
65897;BME280;52677;50.898;10.854;2023-02-10T10:49:23;100516.91;;;1.65;100.00
65897;BME280;52677;50.898;10.854;2023-02-10T10:51:23;100518.56;;;1.66;100.00
65897;BME280;52677;50.898;10.854;2023-02-10T10:55:38;100514.47;;;1.63;100.00
65897;BME280;52677;50.898;10.854;2023-02-10T10:57:40;100501.63;;;1.64;100.00
65897;BME280;52677;50.898;10.854;2023-02-10T10:59:46;100506.53;;;1.62;100.00
65897;BME280;52677;50.898;10.854;2023-02-10T11:01:49;100504.09;;;1.65;100.00
65897;BME280;52677;50.898;10.854;2023-02-10T11:03:49;100504.94;;;1.71;99.80